sensor_id;sensor_type;location;lat;lon;timestamp;P1;durP1;ratioP1;P2;durP2;ratioP2
81353;SDS011;70810;52.038;8.524;2023-11-18T00:00:50;73.47;;;26.20;;
81353;SDS011;70810;52.038;8.524;2023-11-18T00:03:17;74.97;;;31.30;;
81353;SDS011;70810;52.038;8.524;2023-11-18T00:05:44;75.60;;;34.67;;
81353;SDS011;70810;52.038;8.524;2023-11-18T00:08:10;57.28;;;25.25;;
81353;SDS011;70810;52.038;8.524;2023-11-18T00:10:39;73.18;;;27.67;;
81353;SDS011;70810;52.038;8.524;2023-11-18T00:13:08;69.07;;;27.50;;
81353;SDS011;70810;52.038;8.524;2023-11-18T00:15:35;73.18;;;31.38;;
81353;SDS011;70810;52.038;8.524;2023-11-18T00:18:02;68.03;;;26.55;;
81353;SDS011;70810;52.038;8.524;2023-11-18T00:20:29;65.22;;;26.02;;
81353;SDS011;70810;52.038;8.524;2023-11-18T00:22:57;66.18;;;27.70;;
81353;SDS011;70810;52.038;8.524;2023-11-18T00:25:29;65.53;;;28.80;;
81353;SDS011;70810;52.038;8.524;2023-11-18T00:27:56;71.60;;;28.60;;
81353;SDS011;70810;52.038;8.524;2023-11-18T00:30:25;81.68;;;35.63;;
81353;SDS011;70810;52.038;8.524;2023-11-18T00:32:53;57.72;;;27.85;;
81353;SDS011;70810;52.038;8.524;2023-11-18T00:35:20;76.10;;;27.80;;
81353;SDS011;70810;52.038;8.524;2023-11-18T00:37:47;72.68;;;28.52;;
81353;SDS011;70810;52.038;8.524;2023-11-18T00:40:15;70.55;;;28.02;;
81353;SDS011;70810;52.038;8.524;2023-11-18T00:42:43;64.95;;;29.40;;
81353;SDS011;70810;52.038;8.524;2023-11-18T00:45:11;74.32;;;31.85;;
81353;SDS011;70810;52.038;8.524;2023-11-18T00:47:41;89.32;;;41.63;;
81353;SDS011;70810;52.038;8.524;2023-11-18T00:50:09;65.78;;;29.10;;
81353;SDS011;70810;52.038;8.524;2023-11-18T00:52:39;90.05;;;31.33;;
81353;SDS011;70810;52.038;8.524;2023-11-18T00:55:08;89.80;;;30.42;;
81353;SDS011;70810;52.038;8.524;2023-11-18T00:57:36;70.93;;;27.90;;
81353;SDS011;70810;52.038;8.524;2023-11-18T01:00:04;88.82;;;32.00;;
81353;SDS011;70810;52.038;8.524;2023-11-18T01:02:32;117.05;;;37.83;;
81353;SDS011;70810;52.038;8.524;2023-11-18T01:05:02;126.22;;;39.15;;
81353;SDS011;70810;52.038;8.524;2023-11-18T01:07:29;114.68;;;38.97;;
81353;SDS011;70810;52.038;8.524;2023-11-18T01:09:57;130.32;;;41.55;;
81353;SDS011;70810;52.038;8.524;2023-11-18T01:12:24;115.78;;;38.67;;
81353;SDS011;70810;52.038;8.524;2023-11-18T01:14:52;133.95;;;41.47;;
81353;SDS011;70810;52.038;8.524;2023-11-18T01:17:20;141.02;;;41.15;;
81353;SDS011;70810;52.038;8.524;2023-11-18T01:19:47;121.20;;;39.10;;
81353;SDS011;70810;52.038;8.524;2023-11-18T01:22:15;123.72;;;36.70;;
81353;SDS011;70810;52.038;8.524;2023-11-18T01:24:43;119.93;;;39.83;;
81353;SDS011;70810;52.038;8.524;2023-11-18T01:27:13;140.40;;;41.00;;
81353;SDS011;70810;52.038;8.524;2023-11-18T01:29:40;144.07;;;41.03;;
81353;SDS011;70810;52.038;8.524;2023-11-18T01:32:07;135.32;;;38.67;;
81353;SDS011;70810;52.038;8.524;2023-11-18T01:34:36;111.38;;;37.22;;
81353;SDS011;70810;52.038;8.524;2023-11-18T01:37:06;116.82;;;38.25;;
81353;SDS011;70810;52.038;8.524;2023-11-18T01:39:36;127.90;;;37.55;;
81353;SDS011;70810;52.038;8.524;2023-11-18T01:42:06;112.93;;;36.80;;
81353;SDS011;70810;52.038;8.524;2023-11-18T01:44:33;111.60;;;37.42;;
81353;SDS011;70810;52.038;8.524;2023-11-18T01:47:01;124.20;;;36.60;;
81353;SDS011;70810;52.038;8.524;2023-11-18T01:49:31;121.53;;;37.55;;
81353;SDS011;70810;52.038;8.524;2023-11-18T01:52:06;111.65;;;37.83;;
81353;SDS011;70810;52.038;8.524;2023-11-18T01:54:35;130.48;;;40.33;;
81353;SDS011;70810;52.038;8.524;2023-11-18T01:57:04;138.65;;;42.47;;
81353;SDS011;70810;52.038;8.524;2023-11-18T01:59:31;145.40;;;41.75;;
81353;SDS011;70810;52.038;8.524;2023-11-18T02:02:07;144.90;;;42.25;;
81353;SDS011;70810;52.038;8.524;2023-11-18T02:04:36;139.88;;;40.00;;
81353;SDS011;70810;52.038;8.524;2023-11-18T02:07:03;134.02;;;40.90;;
81353;SDS011;70810;52.038;8.524;2023-11-18T02:09:35;121.22;;;39.30;;
81353;SDS011;70810;52.038;8.524;2023-11-18T02:12:08;162.43;;;42.13;;
81353;SDS011;70810;52.038;8.524;2023-11-18T02:14:45;123.97;;;39.83;;
81353;SDS011;70810;52.038;8.524;2023-11-18T02:17:14;136.38;;;41.70;;
81353;SDS011;70810;52.038;8.524;2023-11-18T02:19:50;148.40;;;39.58;;
81353;SDS011;70810;52.038;8.524;2023-11-18T02:22:20;155.32;;;41.65;;
81353;SDS011;70810;52.038;8.524;2023-11-18T02:24:53;157.70;;;39.58;;
81353;SDS011;70810;52.038;8.524;2023-11-18T02:27:21;175.15;;;43.28;;
81353;SDS011;70810;52.038;8.524;2023-11-18T02:29:52;160.18;;;41.95;;
81353;SDS011;70810;52.038;8.524;2023-11-18T02:32:23;135.25;;;38.72;;
81353;SDS011;70810;52.038;8.524;2023-11-18T02:35:00;139.15;;;40.30;;
81353;SDS011;70810;52.038;8.524;2023-11-18T02:37:38;144.35;;;38.85;;
81353;SDS011;70810;52.038;8.524;2023-11-18T02:40:07;141.88;;;38.92;;
81353;SDS011;70810;52.038;8.524;2023-11-18T02:42:44;140.07;;;37.95;;
81353;SDS011;70810;52.038;8.524;2023-11-18T02:45:13;107.80;;;33.72;;
81353;SDS011;70810;52.038;8.524;2023-11-18T02:47:43;116.38;;;36.80;;
81353;SDS011;70810;52.038;8.524;2023-11-18T02:50:14;115.65;;;37.63;;
81353;SDS011;70810;52.038;8.524;2023-11-18T02:52:44;112.68;;;35.53;;
81353;SDS011;70810;52.038;8.524;2023-11-18T02:55:12;127.13;;;38.25;;
81353;SDS011;70810;52.038;8.524;2023-11-18T02:57:42;92.53;;;36.58;;
81353;SDS011;70810;52.038;8.524;2023-11-18T03:00:09;101.25;;;32.75;;
81353;SDS011;70810;52.038;8.524;2023-11-18T03:02:48;110.68;;;31.95;;
81353;SDS011;70810;52.038;8.524;2023-11-18T03:05:16;84.45;;;29.33;;
81353;SDS011;70810;52.038;8.524;2023-11-18T03:07:44;76.40;;;29.60;;
81353;SDS011;70810;52.038;8.524;2023-11-18T03:10:16;75.38;;;30.10;;
81353;SDS011;70810;52.038;8.524;2023-11-18T03:12:52;94.13;;;31.38;;
81353;SDS011;70810;52.038;8.524;2023-11-18T03:15:21;67.32;;;28.13;;
81353;SDS011;70810;52.038;8.524;2023-11-18T03:17:49;73.70;;;29.70;;
81353;SDS011;70810;52.038;8.524;2023-11-18T03:20:16;76.03;;;28.27;;
81353;SDS011;70810;52.038;8.524;2023-11-18T03:22:44;81.28;;;30.13;;
81353;SDS011;70810;52.038;8.524;2023-11-18T03:25:12;80.38;;;30.20;;
81353;SDS011;70810;52.038;8.524;2023-11-18T03:27:47;78.50;;;31.80;;
81353;SDS011;70810;52.038;8.524;2023-11-18T03:30:15;90.72;;;34.53;;
81353;SDS011;70810;52.038;8.524;2023-11-18T03:32:44;75.97;;;30.17;;
81353;SDS011;70810;52.038;8.524;2023-11-18T03:35:15;89.22;;;27.25;;
81353;SDS011;70810;52.038;8.524;2023-11-18T03:37:42;85.88;;;28.10;;
81353;SDS011;70810;52.038;8.524;2023-11-18T03:40:10;85.38;;;30.90;;
81353;SDS011;70810;52.038;8.524;2023-11-18T03:42:38;80.30;;;31.60;;
81353;SDS011;70810;52.038;8.524;2023-11-18T03:45:05;70.57;;;29.40;;
81353;SDS011;70810;52.038;8.524;2023-11-18T03:47:35;83.05;;;34.28;;
81353;SDS011;70810;52.038;8.524;2023-11-18T03:50:02;85.53;;;30.60;;
81353;SDS011;70810;52.038;8.524;2023-11-18T03:52:30;82.45;;;34.85;;
81353;SDS011;70810;52.038;8.524;2023-11-18T03:54:57;98.20;;;35.95;;
81353;SDS011;70810;52.038;8.524;2023-11-18T03:57:24;88.80;;;31.75;;
81353;SDS011;70810;52.038;8.524;2023-11-18T03:59:50;77.30;;;30.30;;
81353;SDS011;70810;52.038;8.524;2023-11-18T04:02:17;90.78;;;32.45;;
81353;SDS011;70810;52.038;8.524;2023-11-18T04:04:45;80.65;;;31.95;;
81353;SDS011;70810;52.038;8.524;2023-11-18T04:07:13;72.13;;;26.73;;
81353;SDS011;70810;52.038;8.524;2023-11-18T04:09:40;81.07;;;27.98;;
81353;SDS011;70810;52.038;8.524;2023-11-18T04:12:08;78.93;;;28.60;;
81353;SDS011;70810;52.038;8.524;2023-11-18T04:14:35;87.13;;;28.85;;
81353;SDS011;70810;52.038;8.524;2023-11-18T04:17:03;70.50;;;28.25;;
81353;SDS011;70810;52.038;8.524;2023-11-18T04:19:31;71.90;;;27.35;;
81353;SDS011;70810;52.038;8.524;2023-11-18T04:21:59;85.28;;;29.10;;
81353;SDS011;70810;52.038;8.524;2023-11-18T04:24:26;78.10;;;31.25;;
81353;SDS011;70810;52.038;8.524;2023-11-18T04:26:53;79.15;;;30.88;;
81353;SDS011;70810;52.038;8.524;2023-11-18T04:29:20;69.90;;;26.52;;
81353;SDS011;70810;52.038;8.524;2023-11-18T04:31:48;76.72;;;29.58;;
81353;SDS011;70810;52.038;8.524;2023-11-18T04:34:15;83.95;;;29.88;;
81353;SDS011;70810;52.038;8.524;2023-11-18T04:36:42;83.85;;;29.98;;
81353;SDS011;70810;52.038;8.524;2023-11-18T04:39:10;77.55;;;30.02;;
81353;SDS011;70810;52.038;8.524;2023-11-18T04:41:37;81.72;;;30.98;;
81353;SDS011;70810;52.038;8.524;2023-11-18T04:44:04;82.00;;;28.67;;
81353;SDS011;70810;52.038;8.524;2023-11-18T04:46:31;75.30;;;29.38;;
81353;SDS011;70810;52.038;8.524;2023-11-18T04:48:59;100.30;;;33.17;;
81353;SDS011;70810;52.038;8.524;2023-11-18T04:51:27;91.45;;;31.67;;
81353;SDS011;70810;52.038;8.524;2023-11-18T04:53:54;88.07;;;31.13;;
81353;SDS011;70810;52.038;8.524;2023-11-18T04:56:22;78.45;;;30.42;;
81353;SDS011;70810;52.038;8.524;2023-11-18T04:58:49;98.20;;;32.80;;
81353;SDS011;70810;52.038;8.524;2023-11-18T05:01:16;77.50;;;29.80;;
81353;SDS011;70810;52.038;8.524;2023-11-18T05:03:43;76.10;;;29.20;;
81353;SDS011;70810;52.038;8.524;2023-11-18T05:06:11;79.90;;;31.95;;
81353;SDS011;70810;52.038;8.524;2023-11-18T05:08:59;87.82;;;31.35;;
81353;SDS011;70810;52.038;8.524;2023-11-18T05:11:36;94.20;;;33.08;;
81353;SDS011;70810;52.038;8.524;2023-11-18T05:14:04;80.57;;;30.88;;
81353;SDS011;70810;52.038;8.524;2023-11-18T05:16:32;90.07;;;30.45;;
81353;SDS011;70810;52.038;8.524;2023-11-18T05:18:59;91.45;;;31.15;;
81353;SDS011;70810;52.038;8.524;2023-11-18T05:21:27;81.45;;;30.17;;
81353;SDS011;70810;52.038;8.524;2023-11-18T05:23:56;115.75;;;31.45;;
81353;SDS011;70810;52.038;8.524;2023-11-18T05:26:23;89.25;;;29.63;;
81353;SDS011;70810;52.038;8.524;2023-11-18T05:28:51;125.53;;;33.85;;
81353;SDS011;70810;52.038;8.524;2023-11-18T05:31:19;89.93;;;31.38;;
81353;SDS011;70810;52.038;8.524;2023-11-18T05:33:46;87.72;;;31.98;;
81353;SDS011;70810;52.038;8.524;2023-11-18T05:36:16;84.82;;;29.95;;
81353;SDS011;70810;52.038;8.524;2023-11-18T05:38:52;87.68;;;29.63;;
81353;SDS011;70810;52.038;8.524;2023-11-18T05:41:19;78.55;;;27.83;;
81353;SDS011;70810;52.038;8.524;2023-11-18T05:43:55;75.68;;;30.13;;
81353;SDS011;70810;52.038;8.524;2023-11-18T05:46:23;87.60;;;32.30;;
81353;SDS011;70810;52.038;8.524;2023-11-18T05:48:51;84.03;;;31.63;;
81353;SDS011;70810;52.038;8.524;2023-11-18T05:51:21;68.40;;;27.27;;
81353;SDS011;70810;52.038;8.524;2023-11-18T05:53:49;84.25;;;30.08;;
81353;SDS011;70810;52.038;8.524;2023-11-18T05:56:18;103.35;;;37.30;;
81353;SDS011;70810;52.038;8.524;2023-11-18T05:58:49;94.40;;;33.13;;
81353;SDS011;70810;52.038;8.524;2023-11-18T06:01:21;98.32;;;30.42;;
81353;SDS011;70810;52.038;8.524;2023-11-18T06:03:53;113.40;;;31.17;;
81353;SDS011;70810;52.038;8.524;2023-11-18T06:06:19;111.03;;;31.33;;
81353;SDS011;70810;52.038;8.524;2023-11-18T06:08:46;309.08;;;39.60;;
81353;SDS011;70810;52.038;8.524;2023-11-18T06:11:14;183.82;;;34.60;;
81353;SDS011;70810;52.038;8.524;2023-11-18T06:13:40;148.57;;;38.10;;
81353;SDS011;70810;52.038;8.524;2023-11-18T06:16:12;125.28;;;30.77;;
81353;SDS011;70810;52.038;8.524;2023-11-18T06:18:42;149.93;;;29.27;;
81353;SDS011;70810;52.038;8.524;2023-11-18T06:21:13;98.70;;;30.30;;
81353;SDS011;70810;52.038;8.524;2023-11-18T06:23:39;115.47;;;27.15;;
81353;SDS011;70810;52.038;8.524;2023-11-18T06:26:06;201.50;;;31.95;;
81353;SDS011;70810;52.038;8.524;2023-11-18T06:28:35;128.90;;;32.15;;
81353;SDS011;70810;52.038;8.524;2023-11-18T06:31:03;143.88;;;31.17;;
81353;SDS011;70810;52.038;8.524;2023-11-18T06:33:49;136.02;;;34.17;;
81353;SDS011;70810;52.038;8.524;2023-11-18T06:36:20;89.90;;;31.35;;
81353;SDS011;70810;52.038;8.524;2023-11-18T06:38:51;82.32;;;30.25;;
81353;SDS011;70810;52.038;8.524;2023-11-18T06:41:21;78.82;;;27.92;;
81353;SDS011;70810;52.038;8.524;2023-11-18T06:43:58;73.38;;;27.60;;
81353;SDS011;70810;52.038;8.524;2023-11-18T06:46:29;66.88;;;26.08;;
81353;SDS011;70810;52.038;8.524;2023-11-18T06:49:00;79.07;;;28.30;;
81353;SDS011;70810;52.038;8.524;2023-11-18T06:51:32;85.60;;;29.20;;
81353;SDS011;70810;52.038;8.524;2023-11-18T06:54:01;75.35;;;34.50;;
81353;SDS011;70810;52.038;8.524;2023-11-18T06:56:34;67.07;;;30.17;;
81353;SDS011;70810;52.038;8.524;2023-11-18T06:59:45;62.90;;;28.15;;
81353;SDS011;70810;52.038;8.524;2023-11-18T07:02:18;75.50;;;24.77;;
81353;SDS011;70810;52.038;8.524;2023-11-18T07:04:48;83.63;;;31.45;;
81353;SDS011;70810;52.038;8.524;2023-11-18T07:07:17;70.07;;;26.48;;
81353;SDS011;70810;52.038;8.524;2023-11-18T07:09:45;68.60;;;26.55;;
81353;SDS011;70810;52.038;8.524;2023-11-18T07:12:14;94.10;;;27.48;;
81353;SDS011;70810;52.038;8.524;2023-11-18T07:14:41;71.18;;;29.45;;
81353;SDS011;70810;52.038;8.524;2023-11-18T07:17:07;56.25;;;24.00;;
81353;SDS011;70810;52.038;8.524;2023-11-18T07:19:35;59.00;;;26.55;;
81353;SDS011;70810;52.038;8.524;2023-11-18T07:22:06;79.55;;;26.25;;
81353;SDS011;70810;52.038;8.524;2023-11-18T07:24:34;76.85;;;27.02;;
81353;SDS011;70810;52.038;8.524;2023-11-18T07:27:01;65.03;;;27.27;;
81353;SDS011;70810;52.038;8.524;2023-11-18T07:29:30;68.90;;;27.55;;
81353;SDS011;70810;52.038;8.524;2023-11-18T07:31:59;58.42;;;25.08;;
81353;SDS011;70810;52.038;8.524;2023-11-18T07:34:32;70.72;;;25.90;;
81353;SDS011;70810;52.038;8.524;2023-11-18T07:37:01;70.90;;;28.13;;
81353;SDS011;70810;52.038;8.524;2023-11-18T07:39:35;76.32;;;34.53;;
81353;SDS011;70810;52.038;8.524;2023-11-18T07:42:12;71.57;;;26.88;;
81353;SDS011;70810;52.038;8.524;2023-11-18T07:44:48;53.00;;;23.05;;
81353;SDS011;70810;52.038;8.524;2023-11-18T07:47:48;62.97;;;27.15;;
81353;SDS011;70810;52.038;8.524;2023-11-18T07:50:35;56.92;;;24.00;;
81353;SDS011;70810;52.038;8.524;2023-11-18T07:53:09;58.65;;;25.05;;
81353;SDS011;70810;52.038;8.524;2023-11-18T07:55:38;61.88;;;26.65;;
81353;SDS011;70810;52.038;8.524;2023-11-18T07:58:06;51.67;;;24.30;;
81353;SDS011;70810;52.038;8.524;2023-11-18T08:00:56;55.80;;;20.90;;
81353;SDS011;70810;52.038;8.524;2023-11-18T08:03:43;57.13;;;26.92;;
81353;SDS011;70810;52.038;8.524;2023-11-18T08:06:11;51.00;;;21.55;;
81353;SDS011;70810;52.038;8.524;2023-11-18T08:08:41;59.00;;;25.00;;
81353;SDS011;70810;52.038;8.524;2023-11-18T08:11:15;53.53;;;25.48;;
81353;SDS011;70810;52.038;8.524;2023-11-18T08:13:47;56.67;;;23.48;;
81353;SDS011;70810;52.038;8.524;2023-11-18T08:16:28;49.10;;;22.15;;
81353;SDS011;70810;52.038;8.524;2023-11-18T08:19:33;56.38;;;20.65;;
81353;SDS011;70810;52.038;8.524;2023-11-18T08:22:00;59.03;;;23.35;;
81353;SDS011;70810;52.038;8.524;2023-11-18T08:24:29;53.13;;;19.25;;
81353;SDS011;70810;52.038;8.524;2023-11-18T08:27:00;52.33;;;20.23;;
81353;SDS011;70810;52.038;8.524;2023-11-18T08:29:32;51.30;;;20.58;;
81353;SDS011;70810;52.038;8.524;2023-11-18T08:32:06;62.95;;;25.58;;
81353;SDS011;70810;52.038;8.524;2023-11-18T08:34:37;48.78;;;20.83;;
81353;SDS011;70810;52.038;8.524;2023-11-18T08:37:09;49.95;;;21.02;;
81353;SDS011;70810;52.038;8.524;2023-11-18T08:39:47;60.03;;;22.20;;
81353;SDS011;70810;52.038;8.524;2023-11-18T08:42:25;50.30;;;26.30;;
81353;SDS011;70810;52.038;8.524;2023-11-18T08:44:56;52.28;;;21.45;;
81353;SDS011;70810;52.038;8.524;2023-11-18T08:47:26;63.35;;;25.45;;
81353;SDS011;70810;52.038;8.524;2023-11-18T08:49:58;49.33;;;20.50;;
81353;SDS011;70810;52.038;8.524;2023-11-18T08:52:45;56.08;;;20.95;;
81353;SDS011;70810;52.038;8.524;2023-11-18T08:55:14;47.50;;;19.77;;
81353;SDS011;70810;52.038;8.524;2023-11-18T08:57:48;53.20;;;24.45;;
81353;SDS011;70810;52.038;8.524;2023-11-18T09:00:24;49.75;;;22.05;;
81353;SDS011;70810;52.038;8.524;2023-11-18T09:03:15;42.75;;;19.27;;
81353;SDS011;70810;52.038;8.524;2023-11-18T09:05:55;41.97;;;21.10;;
81353;SDS011;70810;52.038;8.524;2023-11-18T09:08:30;64.57;;;27.02;;
81353;SDS011;70810;52.038;8.524;2023-11-18T09:11:14;57.78;;;20.50;;
81353;SDS011;70810;52.038;8.524;2023-11-18T09:14:00;53.90;;;21.65;;
81353;SDS011;70810;52.038;8.524;2023-11-18T09:16:32;47.03;;;19.05;;
81353;SDS011;70810;52.038;8.524;2023-11-18T09:19:05;56.45;;;21.80;;
81353;SDS011;70810;52.038;8.524;2023-11-18T09:21:33;44.15;;;18.95;;
81353;SDS011;70810;52.038;8.524;2023-11-18T09:24:01;52.17;;;18.92;;
81353;SDS011;70810;52.038;8.524;2023-11-18T09:26:32;44.00;;;19.73;;
81353;SDS011;70810;52.038;8.524;2023-11-18T09:29:05;43.03;;;18.00;;
81353;SDS011;70810;52.038;8.524;2023-11-18T09:31:34;65.53;;;25.08;;
81353;SDS011;70810;52.038;8.524;2023-11-18T09:34:02;52.85;;;20.90;;
81353;SDS011;70810;52.038;8.524;2023-11-18T09:36:32;45.47;;;20.75;;
81353;SDS011;70810;52.038;8.524;2023-11-18T09:38:59;56.42;;;22.85;;
81353;SDS011;70810;52.038;8.524;2023-11-18T09:41:28;49.05;;;21.05;;
81353;SDS011;70810;52.038;8.524;2023-11-18T09:43:55;44.47;;;21.05;;
81353;SDS011;70810;52.038;8.524;2023-11-18T09:46:30;44.50;;;20.50;;
81353;SDS011;70810;52.038;8.524;2023-11-18T09:49:05;74.72;;;27.70;;
81353;SDS011;70810;52.038;8.524;2023-11-18T09:51:41;46.08;;;19.65;;
81353;SDS011;70810;52.038;8.524;2023-11-18T09:54:14;47.78;;;19.55;;
81353;SDS011;70810;52.038;8.524;2023-11-18T09:56:56;52.20;;;21.98;;
81353;SDS011;70810;52.038;8.524;2023-11-18T09:59:36;45.45;;;20.42;;
81353;SDS011;70810;52.038;8.524;2023-11-18T10:02:13;48.60;;;21.15;;
81353;SDS011;70810;52.038;8.524;2023-11-18T10:04:44;54.53;;;20.92;;
81353;SDS011;70810;52.038;8.524;2023-11-18T10:07:16;52.65;;;24.50;;
81353;SDS011;70810;52.038;8.524;2023-11-18T10:09:46;52.90;;;22.70;;
81353;SDS011;70810;52.038;8.524;2023-11-18T10:12:14;42.63;;;21.58;;
81353;SDS011;70810;52.038;8.524;2023-11-18T10:14:49;43.15;;;21.98;;
81353;SDS011;70810;52.038;8.524;2023-11-18T10:17:19;45.70;;;19.75;;
81353;SDS011;70810;52.038;8.524;2023-11-18T10:19:52;47.47;;;23.33;;
81353;SDS011;70810;52.038;8.524;2023-11-18T10:22:25;71.10;;;22.95;;
81353;SDS011;70810;52.038;8.524;2023-11-18T10:25:07;53.50;;;22.05;;
81353;SDS011;70810;52.038;8.524;2023-11-18T10:27:50;50.83;;;24.98;;
81353;SDS011;70810;52.038;8.524;2023-11-18T10:30:21;52.20;;;19.83;;
81353;SDS011;70810;52.038;8.524;2023-11-18T10:32:57;40.97;;;20.60;;
81353;SDS011;70810;52.038;8.524;2023-11-18T10:35:32;55.05;;;22.17;;
81353;SDS011;70810;52.038;8.524;2023-11-18T10:38:23;47.00;;;22.90;;
81353;SDS011;70810;52.038;8.524;2023-11-18T10:41:03;51.33;;;23.02;;
81353;SDS011;70810;52.038;8.524;2023-11-18T10:44:07;41.90;;;19.83;;
81353;SDS011;70810;52.038;8.524;2023-11-18T10:46:40;46.42;;;22.67;;
81353;SDS011;70810;52.038;8.524;2023-11-18T10:49:09;45.80;;;18.38;;
81353;SDS011;70810;52.038;8.524;2023-11-18T10:51:36;50.70;;;23.50;;
81353;SDS011;70810;52.038;8.524;2023-11-18T10:54:04;59.22;;;25.80;;
81353;SDS011;70810;52.038;8.524;2023-11-18T10:56:46;46.05;;;22.30;;
81353;SDS011;70810;52.038;8.524;2023-11-18T10:59:22;52.60;;;21.65;;
81353;SDS011;70810;52.038;8.524;2023-11-18T11:05:11;61.03;;;19.65;;
81353;SDS011;70810;52.038;8.524;2023-11-18T11:07:40;46.20;;;26.38;;
81353;SDS011;70810;52.038;8.524;2023-11-18T11:10:10;40.55;;;19.48;;
81353;SDS011;70810;52.038;8.524;2023-11-18T11:12:46;63.95;;;24.75;;
81353;SDS011;70810;52.038;8.524;2023-11-18T11:15:28;39.85;;;22.00;;
81353;SDS011;70810;52.038;8.524;2023-11-18T11:18:03;36.47;;;18.30;;
81353;SDS011;70810;52.038;8.524;2023-11-18T11:20:57;37.85;;;17.65;;
81353;SDS011;70810;52.038;8.524;2023-11-18T11:23:35;32.17;;;14.90;;
81353;SDS011;70810;52.038;8.524;2023-11-18T11:26:15;39.13;;;13.65;;
81353;SDS011;70810;52.038;8.524;2023-11-18T11:29:07;42.78;;;14.05;;
81353;SDS011;70810;52.038;8.524;2023-11-18T11:32:00;33.97;;;14.00;;
81353;SDS011;70810;52.038;8.524;2023-11-18T11:34:47;23.00;;;11.95;;
81353;SDS011;70810;52.038;8.524;2023-11-18T11:37:23;20.15;;;12.20;;
81353;SDS011;70810;52.038;8.524;2023-11-18T11:39:53;64.28;;;29.38;;
81353;SDS011;70810;52.038;8.524;2023-11-18T11:42:32;46.75;;;16.63;;
81353;SDS011;70810;52.038;8.524;2023-11-18T11:45:16;33.08;;;13.77;;
81353;SDS011;70810;52.038;8.524;2023-11-18T11:47:50;28.83;;;13.02;;
81353;SDS011;70810;52.038;8.524;2023-11-18T11:50:44;38.33;;;15.13;;
81353;SDS011;70810;52.038;8.524;2023-11-18T11:56:43;29.35;;;14.00;;
81353;SDS011;70810;52.038;8.524;2023-11-18T11:59:54;28.73;;;10.70;;
81353;SDS011;70810;52.038;8.524;2023-11-18T12:02:25;36.95;;;10.88;;
81353;SDS011;70810;52.038;8.524;2023-11-18T12:04:58;46.50;;;13.80;;
81353;SDS011;70810;52.038;8.524;2023-11-18T12:07:33;28.65;;;10.65;;
81353;SDS011;70810;52.038;8.524;2023-11-18T12:10:08;46.20;;;11.18;;
81353;SDS011;70810;52.038;8.524;2023-11-18T12:12:40;29.38;;;10.35;;
81353;SDS011;70810;52.038;8.524;2023-11-18T12:15:08;32.63;;;9.38;;
81353;SDS011;70810;52.038;8.524;2023-11-18T12:20:44;26.70;;;7.72;;
81353;SDS011;70810;52.038;8.524;2023-11-18T12:23:32;32.30;;;8.95;;
81353;SDS011;70810;52.038;8.524;2023-11-18T12:46:41;47.85;;;10.25;;
81353;SDS011;70810;52.038;8.524;2023-11-18T12:49:47;39.10;;;10.65;;
81353;SDS011;70810;52.038;8.524;2023-11-18T12:52:20;25.30;;;8.38;;
81353;SDS011;70810;52.038;8.524;2023-11-18T12:54:49;44.05;;;10.98;;
81353;SDS011;70810;52.038;8.524;2023-11-18T12:57:18;30.23;;;13.27;;
81353;SDS011;70810;52.038;8.524;2023-11-18T12:59:48;47.45;;;20.10;;
81353;SDS011;70810;52.038;8.524;2023-11-18T13:02:16;48.42;;;13.90;;
81353;SDS011;70810;52.038;8.524;2023-11-18T13:04:44;45.38;;;14.32;;
81353;SDS011;70810;52.038;8.524;2023-11-18T13:07:12;28.58;;;11.85;;
81353;SDS011;70810;52.038;8.524;2023-11-18T13:09:40;25.65;;;13.02;;
81353;SDS011;70810;52.038;8.524;2023-11-18T13:12:09;37.83;;;13.32;;
81353;SDS011;70810;52.038;8.524;2023-11-18T13:14:41;44.20;;;15.68;;
81353;SDS011;70810;52.038;8.524;2023-11-18T13:17:09;43.10;;;17.02;;
81353;SDS011;70810;52.038;8.524;2023-11-18T13:19:39;53.00;;;14.48;;
81353;SDS011;70810;52.038;8.524;2023-11-18T13:22:08;56.35;;;16.48;;
81353;SDS011;70810;52.038;8.524;2023-11-18T13:24:36;31.05;;;12.43;;
81353;SDS011;70810;52.038;8.524;2023-11-18T13:27:06;48.42;;;16.08;;
81353;SDS011;70810;52.038;8.524;2023-11-18T13:29:37;45.00;;;14.40;;
81353;SDS011;70810;52.038;8.524;2023-11-18T13:32:08;33.88;;;13.30;;
81353;SDS011;70810;52.038;8.524;2023-11-18T13:34:43;58.30;;;15.27;;
81353;SDS011;70810;52.038;8.524;2023-11-18T13:37:12;34.88;;;12.77;;
81353;SDS011;70810;52.038;8.524;2023-11-18T13:39:42;27.42;;;10.93;;
81353;SDS011;70810;52.038;8.524;2023-11-18T13:42:18;29.67;;;12.63;;
81353;SDS011;70810;52.038;8.524;2023-11-18T13:44:46;42.70;;;12.20;;
81353;SDS011;70810;52.038;8.524;2023-11-18T13:47:17;42.53;;;16.15;;
81353;SDS011;70810;52.038;8.524;2023-11-18T13:49:49;20.88;;;10.52;;
81353;SDS011;70810;52.038;8.524;2023-11-18T13:52:18;38.08;;;14.45;;
81353;SDS011;70810;52.038;8.524;2023-11-18T13:54:50;39.58;;;13.57;;
81353;SDS011;70810;52.038;8.524;2023-11-18T13:57:20;35.78;;;12.48;;
81353;SDS011;70810;52.038;8.524;2023-11-18T13:59:50;34.45;;;13.18;;
81353;SDS011;70810;52.038;8.524;2023-11-18T14:02:25;30.25;;;10.88;;
81353;SDS011;70810;52.038;8.524;2023-11-18T14:05:02;36.63;;;9.90;;
81353;SDS011;70810;52.038;8.524;2023-11-18T14:07:38;44.90;;;17.40;;
81353;SDS011;70810;52.038;8.524;2023-11-18T14:10:25;30.77;;;12.30;;
81353;SDS011;70810;52.038;8.524;2023-11-18T14:12:59;50.20;;;21.58;;
81353;SDS011;70810;52.038;8.524;2023-11-18T14:15:31;26.33;;;9.10;;
81353;SDS011;70810;52.038;8.524;2023-11-18T14:18:03;23.65;;;10.88;;
81353;SDS011;70810;52.038;8.524;2023-11-18T14:20:32;27.90;;;10.30;;
81353;SDS011;70810;52.038;8.524;2023-11-18T14:23:00;54.35;;;13.75;;
81353;SDS011;70810;52.038;8.524;2023-11-18T14:25:29;37.80;;;12.68;;
81353;SDS011;70810;52.038;8.524;2023-11-18T14:27:57;50.13;;;12.52;;
81353;SDS011;70810;52.038;8.524;2023-11-18T14:30:25;40.05;;;11.43;;
81353;SDS011;70810;52.038;8.524;2023-11-18T14:32:52;39.97;;;14.95;;
81353;SDS011;70810;52.038;8.524;2023-11-18T14:35:21;33.17;;;10.20;;
81353;SDS011;70810;52.038;8.524;2023-11-18T14:38:00;27.52;;;12.05;;
81353;SDS011;70810;52.038;8.524;2023-11-18T14:40:36;27.25;;;9.90;;
81353;SDS011;70810;52.038;8.524;2023-11-18T14:43:05;29.50;;;9.52;;
81353;SDS011;70810;52.038;8.524;2023-11-18T14:45:32;39.63;;;11.75;;
81353;SDS011;70810;52.038;8.524;2023-11-18T14:48:00;29.73;;;11.13;;
81353;SDS011;70810;52.038;8.524;2023-11-18T14:50:30;15.65;;;8.65;;
81353;SDS011;70810;52.038;8.524;2023-11-18T14:53:00;43.83;;;9.38;;
81353;SDS011;70810;52.038;8.524;2023-11-18T14:55:28;28.02;;;8.77;;
81353;SDS011;70810;52.038;8.524;2023-11-18T14:57:57;65.18;;;15.73;;
81353;SDS011;70810;52.038;8.524;2023-11-18T15:00:25;59.53;;;10.93;;
81353;SDS011;70810;52.038;8.524;2023-11-18T15:02:58;40.65;;;10.27;;
81353;SDS011;70810;52.038;8.524;2023-11-18T15:05:31;44.55;;;9.70;;
81353;SDS011;70810;52.038;8.524;2023-11-18T15:07:59;20.35;;;7.00;;
81353;SDS011;70810;52.038;8.524;2023-11-18T15:10:27;37.05;;;10.38;;
81353;SDS011;70810;52.038;8.524;2023-11-18T15:12:55;36.95;;;9.63;;
81353;SDS011;70810;52.038;8.524;2023-11-18T15:15:27;46.55;;;10.25;;
81353;SDS011;70810;52.038;8.524;2023-11-18T15:17:58;35.63;;;9.57;;